Time;durP1;ratioP1;P1;durP2;ratioP2;P2;SDS_P1;SDS_P2;PMS_P1;PMS_P2;Temp;Humidity;BMP_temperature;BMP_pressure;BME280_temperature;BME280_humidity;BME280_pressure;Samples;Min_cycle;Max_cycle;Signal;HPM_P1;HPM_P2
2021/01/17 00:00:24;;;;;;;62.45;27.95;;;0.30;95.60;;;;;;5031898;28;20033;-94
2021/01/17 00:02:51;;;;;;;58.38;26.58;;;0.30;95.40;;;;;;5018604;28;20421;-94
2021/01/17 00:05:22;;;;;;;60.83;26.70;;;0.30;95.40;;;;;;5034568;28;20074;-94
2021/01/17 00:07:49;;;;;;;58.17;25.33;;;0.30;95.40;;;;;;5022086;28;20090;-94
2021/01/17 00:10:20;;;;;;;56.70;26.80;;;0.30;95.40;;;;;;5021084;28;20064;-94
2021/01/17 00:12:48;;;;;;;57.58;26.05;;;0.30;95.50;;;;;;5027632;28;20022;-94
2021/01/17 00:15:14;;;;;;;58.95;27.17;;;0.30;95.40;;;;;;5035639;28;20040;-94
2021/01/17 00:17:41;;;;;;;50.80;24.65;;;0.30;95.40;;;;;;5035220;28;20485;-94
2021/01/17 00:20:12;;;;;;;56.97;26.88;;;0.30;95.40;;;;;;5041903;28;20021;-94
2021/01/17 00:22:38;;;;;;;57.60;26.90;;;0.30;95.40;;;;;;5023184;28;20030;-94
2021/01/17 00:25:09;;;;;;;59.75;25.90;;;0.30;95.40;;;;;;5025252;28;20116;-93
2021/01/17 00:27:34;;;;;;;61.70;27.02;;;0.40;95.50;;;;;;5033874;28;20021;-92
2021/01/17 00:30:01;;;;;;;58.45;26.33;;;0.30;95.40;;;;;;5033515;28;20493;-92
2021/01/17 00:32:26;;;;;;;57.53;25.52;;;0.30;95.40;;;;;;5032327;28;20029;-93
2021/01/17 00:34:52;;;;;;;63.25;28.08;;;0.30;95.30;;;;;;5020590;28;20108;-93
2021/01/17 00:37:18;;;;;;;61.50;27.42;;;0.30;95.30;;;;;;5026593;28;20560;-93
2021/01/17 00:39:43;;;;;;;56.72;25.02;;;0.30;95.40;;;;;;5026908;28;20056;-93
2021/01/17 00:42:14;;;;;;;62.90;28.58;;;0.30;95.40;;;;;;5047676;28;20108;-93
2021/01/17 00:44:40;;;;;;;64.32;27.95;;;0.30;95.40;;;;;;5036008;28;20026;-92
2021/01/17 00:47:06;;;;;;;58.70;27.35;;;0.30;95.40;;;;;;5032618;28;20022;-93
2021/01/17 00:49:32;;;;;;;61.55;26.88;;;0.30;95.40;;;;;;5036129;28;20040;-94
2021/01/17 00:51:58;;;;;;;64.07;27.88;;;0.30;95.40;;;;;;5037163;28;20029;-94
2021/01/17 00:54:24;;;;;;;58.35;25.75;;;0.30;95.40;;;;;;5035678;28;20592;-94
2021/01/17 00:56:49;;;;;;;60.00;27.08;;;0.30;95.40;;;;;;5034653;28;20049;-95
2021/01/17 00:59:15;;;;;;;60.08;27.80;;;0.30;95.40;;;;;;5028006;28;20048;-93
2021/01/17 01:01:46;;;;;;;62.15;26.42;;;0.30;95.50;;;;;;5049706;28;20055;-94
2021/01/17 01:04:14;;;;;;;58.67;25.88;;;0.30;95.40;;;;;;5034299;28;20533;-93
2021/01/17 01:06:40;;;;;;;58.65;25.98;;;0.30;95.50;;;;;;5034036;28;20466;-95
2021/01/17 01:09:15;;;;;;;52.63;24.33;;;0.30;95.50;;;;;;5035176;28;20068;-93
2021/01/17 01:11:42;;;;;;;52.30;24.58;;;0.30;95.40;;;;;;5030327;28;20034;-93
2021/01/17 01:14:08;;;;;;;58.17;25.98;;;0.30;95.40;;;;;;5034657;28;20029;-93
2021/01/17 01:16:34;;;;;;;64.35;28.23;;;0.30;95.50;;;;;;5019506;28;20473;-93
2021/01/17 01:19:01;;;;;;;58.60;25.13;;;0.40;95.50;;;;;;5014413;28;20112;-92
2021/01/17 01:21:34;;;;;;;51.90;22.42;;;0.30;95.50;;;;;;5026594;28;20049;-92
2021/01/17 01:24:01;;;;;;;59.42;24.75;;;0.40;95.50;;;;;;5014572;28;20032;-92
2021/01/17 01:26:34;;;;;;;65.15;27.58;;;0.40;95.50;;;;;;5050084;28;20112;-92
2021/01/17 01:29:00;;;;;;;59.10;26.27;;;0.40;95.50;;;;;;5032753;28;20025;-93
2021/01/17 01:31:25;;;;;;;65.82;27.77;;;0.40;95.50;;;;;;5026121;28;20084;-93
2021/01/17 01:33:52;;;;;;;64.00;26.23;;;0.40;95.50;;;;;;5023980;28;20021;-93
2021/01/17 01:36:23;;;;;;;65.72;27.52;;;0.40;95.40;;;;;;5042701;28;20034;-95
2021/01/17 01:38:50;;;;;;;64.95;27.38;;;0.40;95.40;;;;;;5038100;28;20068;-93
2021/01/17 01:41:17;;;;;;;65.00;26.25;;;0.40;95.40;;;;;;5015416;28;20038;-94
2021/01/17 01:43:44;;;;;;;72.00;28.73;;;0.40;95.50;;;;;;5027275;28;20029;-92
2021/01/17 01:46:15;;;;;;;74.20;29.90;;;0.40;95.50;;;;;;5050562;28;20108;-94
2021/01/17 01:48:45;;;;;;;70.50;27.30;;;0.40;95.50;;;;;;5040024;28;20018;-93
2021/01/17 01:51:12;;;;;;;61.88;27.05;;;0.40;95.50;;;;;;5023737;28;20513;-94
2021/01/17 01:53:38;;;;;;;64.20;28.02;;;0.40;95.50;;;;;;5033314;28;20032;-94
2021/01/17 01:56:04;;;;;;;63.70;26.77;;;0.40;95.50;;;;;;5017992;28;20544;-94
2021/01/17 01:58:32;;;;;;;67.10;26.73;;;0.40;95.50;;;;;;5033256;28;20025;-94
2021/01/17 02:00:58;;;;;;;67.95;27.77;;;0.40;95.50;;;;;;5027394;28;20048;-93
2021/01/17 02:03:24;;;;;;;69.88;27.20;;;0.40;95.50;;;;;;5034835;28;20485;-94
2021/01/17 02:05:50;;;;;;;70.07;27.67;;;0.40;95.50;;;;;;5033567;28;20029;-92
2021/01/17 02:08:41;;;;;;;73.90;29.48;;;0.40;95.60;;;;;;5034956;28;20063;-94
2021/01/17 02:11:44;;;;;;;76.88;28.00;;;0.40;95.60;;;;;;5018888;28;20045;-93
2021/01/17 02:14:15;;;;;;;73.40;26.80;;;0.40;95.90;;;;;;5028895;28;20052;-93
2021/01/17 02:16:41;;;;;;;66.18;26.58;;;0.40;95.60;;;;;;5045157;28;20030;-94
2021/01/17 02:19:10;;;;;;;70.55;29.02;;;0.50;95.70;;;;;;5024260;28;20478;-91
2021/01/17 02:21:41;;;;;;;72.47;26.95;;;0.50;95.60;;;;;;5026268;28;20029;-91
2021/01/17 02:24:10;;;;;;;73.82;29.63;;;0.40;95.70;;;;;;5027910;28;20022;-94
2021/01/17 02:26:38;;;;;;;78.07;29.55;;;0.50;95.70;;;;;;5033000;28;20557;-92
2021/01/17 02:29:06;;;;;;;69.80;27.77;;;0.50;95.70;;;;;;5026289;28;20527;-92
2021/01/17 02:31:34;;;;;;;78.85;29.80;;;0.50;95.70;;;;;;5014399;28;20029;-93
2021/01/17 02:34:01;;;;;;;74.40;27.95;;;0.50;95.70;;;;;;5049211;28;20108;-93
2021/01/17 02:36:38;;;;;;;77.35;29.10;;;0.50;95.70;;;;;;5032470;28;20041;-92
2021/01/17 02:39:20;;;;;;;74.88;28.17;;;0.50;95.70;;;;;;5032881;28;20039;-92
2021/01/17 02:41:54;;;;;;;79.75;30.50;;;0.50;95.70;;;;;;5032728;28;20030;-92
2021/01/17 02:44:20;;;;;;;73.82;27.33;;;0.50;95.70;;;;;;5032793;28;20117;-92
2021/01/17 02:46:46;;;;;;;82.72;28.60;;;0.50;95.70;;;;;;5029044;28;20089;-92
2021/01/17 02:49:11;;;;;;;74.05;27.63;;;0.50;95.80;;;;;;5035633;28;20033;-92
2021/01/17 02:51:37;;;;;;;74.50;27.88;;;0.50;95.80;;;;;;5031771;28;20112;-92
2021/01/17 02:54:10;;;;;;;81.68;28.77;;;0.50;95.80;;;;;;5031358;28;20029;-93
2021/01/17 02:56:41;;;;;;;71.70;27.83;;;0.50;95.80;;;;;;5032517;28;20030;-90
2021/01/17 02:59:11;;;;;;;63.75;25.63;;;0.50;95.90;;;;;;5032805;28;20097;-90
2021/01/17 03:01:38;;;;;;;71.50;27.60;;;0.50;95.90;;;;;;5030773;28;20489;-92
2021/01/17 03:04:26;;;;;;;64.18;25.45;;;0.50;96.00;;;;;;5025028;28;20540;-90
2021/01/17 03:06:52;;;;;;;73.10;26.80;;;0.50;96.00;;;;;;5012860;28;20034;-90
2021/01/17 03:09:18;;;;;;;69.85;27.90;;;0.50;96.00;;;;;;5047686;28;20087;-91
2021/01/17 03:11:44;;;;;;;68.65;27.35;;;0.50;96.00;;;;;;5020771;28;20120;-92
2021/01/17 03:14:10;;;;;;;66.85;25.77;;;0.50;96.00;;;;;;5032158;28;20419;-91
2021/01/17 03:16:36;;;;;;;71.93;28.60;;;0.50;96.00;;;;;;5031790;28;20029;-92
2021/01/17 03:19:01;;;;;;;75.00;27.23;;;0.50;96.00;;;;;;5032827;28;20018;-92
2021/01/17 03:21:27;;;;;;;68.93;26.92;;;0.50;96.00;;;;;;5032785;28;20503;-92
2021/01/17 03:23:53;;;;;;;70.00;26.15;;;0.50;96.00;;;;;;5031822;28;20083;-93
2021/01/17 03:26:18;;;;;;;71.00;26.70;;;0.50;96.00;;;;;;5049073;28;20140;-90
2021/01/17 03:28:44;;;;;;;70.47;27.23;;;0.60;96.00;;;;;;5048617;28;20466;-90
2021/01/17 03:31:09;;;;;;;74.18;26.05;;;0.60;96.00;;;;;;5048250;28;20058;-90
2021/01/17 03:33:35;;;;;;;71.63;26.77;;;0.60;96.10;;;;;;5031830;28;20029;-91
2021/01/17 03:36:00;;;;;;;66.05;24.67;;;0.60;96.10;;;;;;5023130;28;20036;-92
2021/01/17 03:38:26;;;;;;;68.90;24.98;;;0.60;96.10;;;;;;5028557;28;20044;-91
2021/01/17 03:40:51;;;;;;;66.40;27.00;;;0.60;96.10;;;;;;5034421;28;20025;-91
2021/01/17 03:43:17;;;;;;;65.22;24.40;;;0.60;96.10;;;;;;5026513;28;20030;-92
2021/01/17 03:45:42;;;;;;;61.38;23.27;;;0.60;96.10;;;;;;5028398;28;20022;-91
2021/01/17 03:48:08;;;;;;;63.90;25.70;;;0.60;96.10;;;;;;5032390;28;20032;-90
2021/01/17 03:50:34;;;;;;;65.32;24.23;;;0.60;96.10;;;;;;5031493;28;20069;-91
2021/01/17 03:52:59;;;;;;;68.05;24.88;;;0.70;96.10;;;;;;5029505;28;20084;-92
2021/01/17 03:55:24;;;;;;;65.10;24.90;;;0.60;96.10;;;;;;5034210;28;20033;-91
2021/01/17 03:57:50;;;;;;;52.58;22.33;;;0.70;96.10;;;;;;5035352;28;20021;-90
2021/01/17 04:00:16;;;;;;;55.28;23.23;;;0.60;96.10;;;;;;5031201;28;20034;-90
2021/01/17 04:02:41;;;;;;;54.10;22.70;;;0.70;96.10;;;;;;5020456;28;20018;-90
2021/01/17 04:05:08;;;;;;;57.20;22.10;;;0.70;96.20;;;;;;5030237;28;20026;-89
2021/01/17 04:07:33;;;;;;;59.30;23.65;;;0.70;96.20;;;;;;5036179;28;20029;-90
2021/01/17 04:09:59;;;;;;;61.67;23.88;;;0.60;96.20;;;;;;5021505;28;20092;-91
2021/01/17 04:12:24;;;;;;;54.20;22.85;;;0.70;96.20;;;;;;5016837;28;20037;-91
2021/01/17 04:14:50;;;;;;;53.40;21.58;;;0.70;96.20;;;;;;5045409;28;20037;-91
2021/01/17 04:17:15;;;;;;;51.90;20.60;;;0.70;96.20;;;;;;5020422;28;20021;-91
2021/01/17 04:19:41;;;;;;;56.72;22.30;;;0.70;96.20;;;;;;5035592;28;20478;-90
2021/01/17 04:22:06;;;;;;;53.22;21.63;;;0.70;96.20;;;;;;5016654;28;20054;-91
2021/01/17 04:24:32;;;;;;;52.75;20.95;;;0.70;96.20;;;;;;5022473;28;20040;-90
2021/01/17 04:26:59;;;;;;;55.35;22.60;;;0.70;96.20;;;;;;5029729;28;20080;-90
2021/01/17 04:29:25;;;;;;;51.17;20.63;;;0.70;96.20;;;;;;5035749;28;20125;-89
2021/01/17 04:31:51;;;;;;;49.72;19.67;;;0.70;96.30;;;;;;5034136;28;20078;-89
2021/01/17 04:34:16;;;;;;;47.35;19.95;;;0.70;96.20;;;;;;5037877;28;20025;-90
2021/01/17 04:36:47;;;;;;;50.28;21.40;;;0.80;96.50;;;;;;5034337;28;20030;-89
2021/01/17 04:39:13;;;;;;;46.80;19.90;;;0.80;96.30;;;;;;5016109;28;20436;-89
2021/01/17 04:41:42;;;;;;;45.28;19.17;;;0.80;96.30;;;;;;5031100;28;20052;-90
2021/01/17 04:44:09;;;;;;;50.97;20.88;;;0.80;96.30;;;;;;5034938;28;20021;-90
2021/01/17 04:46:37;;;;;;;47.92;20.85;;;0.80;96.20;;;;;;5033820;28;20033;-90
2021/01/17 04:49:09;;;;;;;49.97;20.48;;;0.90;96.20;;;;;;5034936;28;20064;-89
2021/01/17 04:51:35;;;;;;;49.25;20.60;;;0.90;96.20;;;;;;5035799;28;20371;-90
2021/01/17 04:54:03;;;;;;;48.42;20.23;;;0.90;96.20;;;;;;5032189;28;20084;-90
2021/01/17 04:56:30;;;;;;;48.47;20.30;;;0.90;96.20;;;;;;5035717;28;20556;-90
2021/01/17 04:59:09;;;;;;;49.95;20.40;;;0.90;96.30;;;;;;5031904;28;20030;-89
2021/01/17 05:01:46;;;;;;;50.45;20.60;;;0.90;96.30;;;;;;5033769;28;20533;-89
2021/01/17 05:04:46;;;;;;;49.25;21.25;;;0.90;96.20;;;;;;5033213;28;20064;-89
2021/01/17 05:07:17;;;;;;;48.10;19.88;;;0.90;96.20;;;;;;5034214;28;20037;-89
2021/01/17 05:10:04;;;;;;;49.40;20.00;;;0.90;96.20;;;;;;5026271;28;20116;-89
2021/01/17 05:12:40;;;;;;;52.20;20.30;;;0.90;96.20;;;;;;5017653;28;20054;-89
2021/01/17 05:15:07;;;;;;;51.03;20.92;;;0.90;96.20;;;;;;5032435;28;20033;-89
2021/01/17 05:17:39;;;;;;;49.63;20.00;;;0.90;96.20;;;;;;5032831;28;20029;-89
2021/01/17 05:20:06;;;;;;;49.90;21.08;;;0.90;96.20;;;;;;5034744;28;20030;-88
2021/01/17 05:22:32;;;;;;;51.90;20.08;;;1.00;96.30;;;;;;5035329;28;20390;-90
2021/01/17 05:24:58;;;;;;;47.42;19.77;;;1.00;96.30;;;;;;5031100;28;20474;-89
2021/01/17 05:27:24;;;;;;;44.60;19.35;;;1.00;96.20;;;;;;5033675;28;20055;-89
2021/01/17 05:29:50;;;;;;;51.92;21.45;;;1.00;96.20;;;;;;5034047;28;20041;-89
2021/01/17 05:32:16;;;;;;;50.67;20.25;;;1.00;96.20;;;;;;5033483;28;20028;-89
2021/01/17 05:34:42;;;;;;;48.42;19.55;;;1.00;96.20;;;;;;5037149;28;20022;-89
2021/01/17 05:37:09;;;;;;;54.58;21.02;;;1.00;96.30;;;;;;5026064;28;20499;-88
2021/01/17 05:39:58;;;;;;;48.70;19.23;;;1.00;96.20;;;;;;5033614;28;20026;-90
2021/01/17 05:42:32;;;;;;;52.33;19.90;;;1.00;96.20;;;;;;5030500;28;20026;-87
2021/01/17 05:45:18;;;;;;;56.33;20.58;;;1.00;96.20;;;;;;5026760;28;20119;-88
2021/01/17 05:48:08;;;;;;;52.25;19.65;;;1.00;96.20;;;;;;5031008;28;20037;-88
2021/01/17 05:50:36;;;;;;;50.28;19.73;;;1.00;96.20;;;;;;5033874;28;20029;-89
2021/01/17 05:53:06;;;;;;;58.63;20.73;;;0.90;96.20;;;;;;5032778;28;20018;-89
2021/01/17 05:55:35;;;;;;;48.58;19.75;;;1.00;96.30;;;;;;5033209;28;20389;-90
2021/01/17 05:58:22;;;;;;;47.40;18.42;;;1.00;96.30;;;;;;5028220;28;20492;-90
2021/01/17 06:00:50;;;;;;;47.83;19.45;;;1.00;96.30;;;;;;5031363;28;20497;-90
2021/01/17 06:03:36;;;;;;;51.00;20.83;;;1.00;96.30;;;;;;5026380;28;20029;-90
2021/01/17 06:06:06;;;;;;;49.13;19.38;;;1.00;96.30;;;;;;5031113;28;20022;-90
2021/01/17 06:08:32;;;;;;;46.55;19.10;;;1.00;96.30;;;;;;5034298;28;20129;-90
2021/01/17 06:11:12;;;;;;;51.50;20.20;;;1.10;96.30;;;;;;5027343;28;20502;-90
2021/01/17 06:13:39;;;;;;;50.63;20.25;;;1.10;96.30;;;;;;5024593;28;20026;-90
2021/01/17 06:16:25;;;;;;;55.25;20.80;;;1.10;96.30;;;;;;5033542;28;20371;-90
2021/01/17 06:18:57;;;;;;;51.67;19.75;;;1.10;96.30;;;;;;5032614;28;20068;-90
2021/01/17 06:21:27;;;;;;;51.47;20.08;;;1.10;96.30;;;;;;5034185;28;20382;-90
2021/01/17 06:24:01;;;;;;;56.05;21.10;;;1.10;96.30;;;;;;5031774;28;20036;-90
2021/01/17 06:26:32;;;;;;;50.03;20.25;;;1.10;96.30;;;;;;5049793;28;20029;-90
2021/01/17 06:28:59;;;;;;;53.67;19.63;;;1.10;96.50;;;;;;5032150;28;20029;-90
2021/01/17 06:31:30;;;;;;;49.72;20.13;;;1.10;96.30;;;;;;5029408;28;20084;-90
2021/01/17 06:34:07;;;;;;;56.45;20.67;;;1.10;96.30;;;;;;5016701;28;20021;-90
2021/01/17 06:36:34;;;;;;;59.17;21.10;;;1.10;96.30;;;;;;5033126;28;20036;-89
2021/01/17 06:39:00;;;;;;;58.00;20.98;;;1.10;96.30;;;;;;5032727;28;20025;-89
2021/01/17 06:41:39;;;;;;;61.65;20.13;;;1.20;96.30;;;;;;5032553;28;20121;-89
2021/01/17 06:44:10;;;;;;;53.20;19.95;;;1.20;96.30;;;;;;5021845;28;20100;-89
2021/01/17 06:46:44;;;;;;;62.53;20.92;;;1.20;96.30;;;;;;5049183;28;20033;-89
2021/01/17 06:49:21;;;;;;;52.80;20.38;;;1.30;96.40;;;;;;5031458;28;20057;-89
2021/01/17 06:51:49;;;;;;;55.38;20.08;;;1.30;96.30;;;;;;5037435;28;20029;-90
2021/01/17 06:54:20;;;;;;;58.22;21.33;;;1.30;96.30;;;;;;5033475;28;20053;-90
2021/01/17 06:56:48;;;;;;;54.85;21.20;;;1.20;96.20;;;;;;5022049;28;20069;-90
2021/01/17 06:59:31;;;;;;;62.00;20.58;;;1.30;96.30;;;;;;5032786;28;20029;-90
2021/01/17 07:02:15;;;;;;;59.05;20.45;;;1.30;96.30;;;;;;5026470;28;22363;-90
2021/01/17 07:04:56;;;;;;;67.15;22.25;;;1.30;96.30;;;;;;5032177;28;20021;-90
2021/01/17 07:07:52;;;;;;;66.40;21.65;;;1.30;96.30;;;;;;5032077;28;20075;-90
2021/01/17 07:10:23;;;;;;;73.13;22.95;;;1.30;96.30;;;;;;5031742;28;20041;-90
2021/01/17 07:13:03;;;;;;;57.85;20.65;;;1.30;96.30;;;;;;5032467;28;20063;-90
2021/01/17 07:15:33;;;;;;;63.08;21.23;;;1.30;96.30;;;;;;5041422;28;20104;-90
2021/01/17 07:18:10;;;;;;;108.30;24.52;;;1.30;96.30;;;;;;5031472;28;20029;-89
2021/01/17 07:20:44;;;;;;;74.72;24.02;;;1.30;96.30;;;;;;5026505;28;20440;-90
2021/01/17 07:23:11;;;;;;;64.65;22.02;;;1.30;96.30;;;;;;5030639;28;20060;-90
2021/01/17 07:25:38;;;;;;;62.88;22.35;;;1.30;96.30;;;;;;5049153;28;20022;-91
2021/01/17 07:28:14;;;;;;;140.25;24.52;;;1.30;96.30;;;;;;5038696;28;20026;-90
2021/01/17 07:30:48;;;;;;;83.60;21.92;;;1.40;96.30;;;;;;5032154;28;20049;-91
2021/01/17 07:33:21;;;;;;;77.30;21.83;;;1.40;96.30;;;;;;5034292;28;20037;-91
2021/01/17 07:35:48;;;;;;;156.45;25.65;;;1.40;96.30;;;;;;5035100;28;20116;-91
2021/01/17 07:38:20;;;;;;;113.43;25.08;;;1.40;96.30;;;;;;5044274;28;20052;-91
2021/01/17 07:41:07;;;;;;;267.45;27.48;;;1.40;96.30;;;;;;5035480;28;20053;-91
2021/01/17 07:43:43;;;;;;;116.50;24.75;;;1.40;96.30;;;;;;5035176;28;20489;-92
2021/01/17 07:46:15;;;;;;;168.52;26.63;;;1.50;96.40;;;;;;5035212;28;20098;-91
2021/01/17 07:48:43;;;;;;;111.25;25.85;;;1.50;96.40;;;;;;5029534;28;20029;-91
2021/01/17 07:51:11;;;;;;;91.30;24.33;;;1.50;96.40;;;;;;5044000;28;20565;-91
2021/01/17 07:53:36;;;;;;;103.75;23.30;;;1.50;96.50;;;;;;5051880;28;20393;-92
2021/01/17 07:56:12;;;;;;;90.70;25.33;;;1.50;96.40;;;;;;5052433;28;20036;-90
2021/01/17 07:58:44;;;;;;;108.20;25.80;;;1.60;96.40;;;;;;5020050;28;20164;-92
2021/01/17 08:01:28;;;;;;;;;;;1.60;96.40;;;;;;5028973;28;20037;-90
2021/01/17 08:03:54;;;;;;;101.95;23.48;;;1.60;96.40;;;;;;5017702;28;19913;-92
2021/01/17 08:06:40;;;;;;;116.88;26.23;;;1.60;96.40;;;;;;5033121;28;20045;-92
2021/01/17 08:09:14;;;;;;;107.68;25.60;;;1.70;96.40;;;;;;5015875;28;20076;-91
2021/01/17 08:11:45;;;;;;;127.18;27.65;;;1.60;96.60;;;;;;5048602;28;20041;-91
2021/01/17 08:14:29;;;;;;;101.45;27.70;;;1.70;96.40;;;;;;5042046;28;20025;-91
2021/01/17 08:17:17;;;;;;;127.45;27.30;;;1.70;96.30;;;;;;5032057;28;20060;-92
2021/01/17 08:19:56;;;;;;;97.05;28.27;;;1.80;96.40;;;;;;5031977;28;20022;-92
2021/01/17 08:22:22;;;;;;;92.85;26.05;;;1.80;96.40;;;;;;5030695;28;20087;-92
2021/01/17 08:24:48;;;;;;;91.40;26.35;;;1.80;96.40;;;;;;5020444;28;20026;-91
2021/01/17 08:27:38;;;;;;;97.47;25.65;;;1.80;96.40;;;;;;5026436;28;20065;-93
2021/01/17 08:30:07;;;;;;;93.00;27.05;;;1.90;96.40;;;;;;5030918;28;20085;-92
2021/01/17 08:32:35;;;;;;;92.03;26.13;;;1.90;96.40;;;;;;5035121;28;20049;-93
2021/01/17 08:35:25;;;;;;;95.75;27.77;;;2.00;96.40;;;;;;5032999;28;20026;-91
2021/01/17 08:37:54;;;;;;;95.07;27.25;;;2.00;96.30;;;;;;5035999;28;20018;-93
2021/01/17 08:40:29;;;;;;;79.88;26.73;;;2.10;96.40;;;;;;5035044;28;20029;-92
2021/01/17 08:43:05;;;;;;;89.47;27.10;;;2.10;96.40;;;;;;5032861;28;20037;-92
2021/01/17 08:45:36;;;;;;;98.35;28.52;;;2.20;96.40;;;;;;5016497;28;20546;-94
2021/01/17 08:48:20;;;;;;;95.22;28.77;;;2.30;96.40;;;;;;5030042;28;20032;-93
2021/01/17 08:50:47;;;;;;;99.32;29.90;;;2.30;96.30;;;;;;5035377;28;20041;-94
2021/01/17 08:53:13;;;;;;;101.95;27.95;;;2.40;96.40;;;;;;5033491;28;20025;-94
2021/01/17 08:55:48;;;;;;;90.55;27.98;;;2.40;96.30;;;;;;5040300;28;20455;-93
2021/01/17 08:58:16;;;;;;;87.78;26.88;;;2.40;96.30;;;;;;5034212;28;20035;-94
2021/01/17 09:00:57;;;;;;;98.00;30.15;;;2.50;96.30;;;;;;5035426;28;20553;-92
2021/01/17 09:03:42;;;;;;;79.30;26.80;;;2.60;96.30;;;;;;5037783;28;20025;-94
2021/01/17 09:06:07;;;;;;;104.97;28.77;;;2.60;96.30;;;;;;5052030;28;20025;-93
2021/01/17 09:08:34;;;;;;;98.07;28.25;;;2.70;96.30;;;;;;5020568;28;20072;-93
2021/01/17 09:11:01;;;;;;;99.47;28.73;;;2.70;96.30;;;;;;5027946;28;20038;-93
2021/01/17 09:13:30;;;;;;;96.05;29.83;;;2.70;96.30;;;;;;5041990;28;20116;-93
2021/01/17 09:16:03;;;;;;;87.45;27.27;;;2.80;96.30;;;;;;5043867;28;20022;-95
2021/01/17 09:18:32;;;;;;;90.25;27.15;;;2.90;96.30;;;;;;5034042;28;20037;-94
2021/01/17 09:20:58;;;;;;;97.15;28.15;;;2.90;96.30;;;;;;5057633;28;20537;-95
2021/01/17 09:23:25;;;;;;;95.47;26.40;;;3.00;96.30;;;;;;5036095;28;20048;-94
2021/01/17 09:25:59;;;;;;;90.80;27.65;;;3.00;96.30;;;;;;5042436;28;20071;-95
2021/01/17 09:28:29;;;;;;;84.70;25.33;;;3.10;96.30;;;;;;5047218;28;20093;-95
2021/01/17 09:30:56;;;;;;;83.13;27.05;;;3.20;96.30;;;;;;5047051;28;20061;-96
2021/01/17 09:33:22;;;;;;;79.32;23.02;;;3.20;96.30;;;;;;5047411;28;20485;-95
2021/01/17 09:35:48;;;;;;;90.30;24.42;;;3.30;96.20;;;;;;5042531;28;20032;-96
2021/01/17 09:38:19;;;;;;;69.95;23.15;;;3.30;96.10;;;;;;5062771;28;20398;-96
2021/01/17 09:40:47;;;;;;;71.45;22.02;;;3.40;96.20;;;;;;5038186;28;20037;-96
2021/01/17 09:43:13;;;;;;;73.32;22.25;;;3.40;96.20;;;;;;5054587;28;20048;-95
2021/01/17 09:45:39;;;;;;;77.97;21.10;;;3.50;96.20;;;;;;5043572;28;20050;-95
2021/01/17 09:48:05;;;;;;;69.72;20.38;;;3.50;96.10;;;;;;5041412;28;20052;-96
2021/01/17 09:50:40;;;;;;;61.42;18.33;;;3.60;96.10;;;;;;5047971;28;20045;-96
2021/01/17 09:53:10;;;;;;;71.32;19.65;;;3.60;96.10;;;;;;5061685;28;20022;-96
2021/01/17 09:55:39;;;;;;;58.17;17.13;;;3.60;96.00;;;;;;5036638;28;20046;-95
2021/01/17 09:58:06;;;;;;;63.78;15.98;;;3.70;96.00;;;;;;5017325;28;20033;-96
2021/01/17 10:00:32;;;;;;;65.57;16.25;;;3.70;96.00;;;;;;5031965;28;20030;-96
2021/01/17 10:02:58;;;;;;;52.83;15.02;;;3.80;96.00;;;;;;5035816;28;20022;-95
2021/01/17 10:05:30;;;;;;;63.35;15.05;;;3.80;96.00;;;;;;5036575;28;20037;-95
2021/01/17 10:08:05;;;;;;;57.67;13.00;;;3.90;96.00;;;;;;5037240;28;20021;-96
2021/01/17 10:10:32;;;;;;;56.65;12.55;;;3.90;96.00;;;;;;5037822;28;20041;-95
2021/01/17 10:12:57;;;;;;;55.00;13.30;;;3.90;96.00;;;;;;5055370;28;20048;-96
2021/01/17 10:15:25;;;;;;;45.85;11.02;;;4.00;96.00;;;;;;5043136;28;20033;-95
2021/01/17 10:17:52;;;;;;;51.90;10.55;;;4.10;96.10;;;;;;5042715;28;20047;-95
2021/01/17 10:20:29;;;;;;;37.30;10.32;;;4.10;96.10;;;;;;5045797;28;20089;-96
2021/01/17 10:22:59;;;;;;;51.90;10.40;;;4.20;96.10;;;;;;5046849;28;20033;-96
2021/01/17 10:25:26;;;;;;;43.55;8.93;;;4.20;96.10;;;;;;5062177;28;20029;-96
2021/01/17 10:28:09;;;;;;;49.72;8.00;;;4.20;96.00;;;;;;5046741;28;20018;-96
2021/01/17 10:30:42;;;;;;;;;;;4.20;96.00;;;;;;5046959;28;20069;-95
2021/01/17 10:33:12;;;;;;;43.72;7.55;;;4.20;95.90;;;;;;5048516;28;19909;-96
2021/01/17 10:35:43;;;;;;;40.65;8.27;;;4.20;96.00;;;;;;5046183;28;20053;-96
2021/01/17 10:38:10;;;;;;;42.22;9.55;;;4.20;96.00;;;;;;5063921;28;20025;-95
2021/01/17 10:40:37;;;;;;;35.90;7.10;;;4.20;96.00;;;;;;5045204;28;20021;-96
2021/01/17 10:43:08;;;;;;;42.67;7.53;;;4.20;96.10;;;;;;5038997;28;20075;-96
2021/01/17 10:45:36;;;;;;;32.53;7.80;;;4.20;96.10;;;;;;5052548;28;20053;-96
2021/01/17 10:48:12;;;;;;;42.45;8.68;;;4.30;96.10;;;;;;5059077;28;20071;-96
2021/01/17 10:51:00;;;;;;;31.88;8.68;;;4.30;96.20;;;;;;5052256;28;20044;-95
2021/01/17 10:53:32;;;;;;;42.90;8.23;;;4.50;96.20;;;;;;5026982;28;20021;-96
2021/01/17 10:55:59;;;;;;;36.42;8.65;;;4.60;96.30;;;;;;5033668;28;20053;-93
2021/01/17 10:58:32;;;;;;;36.58;9.23;;;4.60;96.20;;;;;;5052746;28;20021;-95
2021/01/17 11:00:59;;;;;;;50.83;9.38;;;4.70;96.20;;;;;;5030048;28;20052;-94
2021/01/17 11:03:31;;;;;;;35.47;9.20;;;4.80;96.20;;;;;;5032279;28;20500;-94
2021/01/17 11:06:23;;;;;;;41.40;9.10;;;4.90;96.20;;;;;;5032660;28;20065;-95
2021/01/17 11:08:52;;;;;;;38.17;8.15;;;5.00;96.00;;;;;;5027094;28;20095;-94
2021/01/17 11:11:18;;;;;;;43.55;7.80;;;5.00;95.90;;;;;;5052987;28;20069;-93
2021/01/17 11:13:54;;;;;;;32.75;7.97;;;5.00;95.90;;;;;;5053199;28;20032;-93
2021/01/17 11:16:52;;;;;;;37.35;8.32;;;5.00;95.90;;;;;;5040489;28;20553;-94
2021/01/17 11:19:18;;;;;;;31.10;6.80;;;5.10;95.90;;;;;;5016600;28;20026;-94
2021/01/17 11:21:45;;;;;;;31.17;7.10;;;5.00;95.90;;;;;;5031360;28;20045;-94
2021/01/17 11:24:12;;;;;;;26.08;7.13;;;5.10;96.00;;;;;;5044470;28;20021;-94
2021/01/17 11:26:38;;;;;;;27.73;6.07;;;5.10;96.00;;;;;;5036046;28;20037;-94
2021/01/17 11:29:17;;;;;;;30.17;7.05;;;5.10;96.00;;;;;;5020419;28;20092;-93
2021/01/17 11:31:47;;;;;;;33.75;6.40;;;5.20;96.00;;;;;;5026234;28;20043;-94
2021/01/17 11:34:14;;;;;;;32.42;5.22;;;5.30;96.20;;;;;;5028072;28;20034;-93
2021/01/17 11:36:39;;;;;;;24.98;4.78;;;5.50;96.30;;;;;;5033077;28;20052;-93
2021/01/17 11:39:05;;;;;;;19.45;4.80;;;5.60;96.10;;;;;;5036795;28;20026;-94
2021/01/17 11:41:38;;;;;;;30.00;7.22;;;5.70;95.90;;;;;;5032356;28;20101;-94
2021/01/17 11:44:14;;;;;;;26.90;5.57;;;5.80;95.80;;;;;;5035654;28;20524;-95
2021/01/17 11:46:41;;;;;;;30.55;4.50;;;5.80;95.70;;;;;;5035940;28;20436;-94
2021/01/17 11:49:07;;;;;;;41.00;5.88;;;5.80;95.80;;;;;;5050639;28;20047;-93
2021/01/17 11:51:33;;;;;;;31.15;4.35;;;5.80;95.70;;;;;;5034249;28;20029;-95
2021/01/17 11:54:13;;;;;;;25.02;3.08;;;5.80;95.70;;;;;;5049049;28;20432;-94
2021/01/17 11:56:40;;;;;;;33.35;3.85;;;5.80;95.60;;;;;;5026910;28;20032;-94
2021/01/17 11:59:05;;;;;;;21.80;3.38;;;5.80;95.60;;;;;;5016777;28;20067;-95
2021/01/17 12:01:31;;;;;;;21.42;3.33;;;5.80;95.60;;;;;;5033623;28;20116;-95
2021/01/17 12:04:01;;;;;;;24.27;3.95;;;5.80;95.60;;;;;;5029592;28;20032;-94
2021/01/17 12:06:27;;;;;;;25.73;3.88;;;5.90;95.60;;;;;;5032354;28;20496;-94
2021/01/17 12:09:03;;;;;;;30.75;4.60;;;5.90;95.60;;;;;;5034804;28;20030;-93
2021/01/17 12:11:37;;;;;;;35.17;4.45;;;5.80;95.50;;;;;;5051870;28;20025;-94
2021/01/17 12:14:09;;;;;;;28.65;5.38;;;5.80;95.50;;;;;;5038794;28;20085;-93
2021/01/17 12:16:48;;;;;;;30.47;5.73;;;5.70;95.50;;;;;;5035149;28;20037;-93
2021/01/17 12:19:15;;;;;;;26.58;4.32;;;5.70;95.60;;;;;;5021946;28;20038;-94
2021/01/17 12:21:42;;;;;;;27.42;5.25;;;5.70;95.70;;;;;;5019126;28;20096;-94
2021/01/17 12:24:13;;;;;;;21.33;4.65;;;5.70;95.80;;;;;;5043728;28;20060;-93
2021/01/17 12:26:40;;;;;;;38.15;5.90;;;5.90;96.00;;;;;;5016845;28;20029;-93
2021/01/17 12:29:07;;;;;;;28.77;4.50;;;6.00;96.00;;;;;;5026480;28;20053;-94
2021/01/17 12:31:33;;;;;;;19.17;3.55;;;6.10;95.90;;;;;;5025337;28;20042;-93
2021/01/17 12:33:59;;;;;;;24.88;3.22;;;6.20;95.90;;;;;;5034154;28;20048;-93
2021/01/17 12:36:27;;;;;;;31.45;3.78;;;6.30;95.80;;;;;;5034613;28;20025;-94
2021/01/17 12:38:53;;;;;;;42.10;6.18;;;6.40;95.80;;;;;;5046966;28;20477;-93
2021/01/17 12:41:21;;;;;;;23.92;3.95;;;6.40;95.60;;;;;;5035186;28;20071;-94
2021/01/17 12:43:47;;;;;;;28.77;4.28;;;6.50;95.60;;;;;;5034593;28;20026;-94
2021/01/17 12:46:15;;;;;;;23.70;3.55;;;6.50;95.60;;;;;;5026558;28;20030;-93
2021/01/17 12:48:41;;;;;;;22.02;3.53;;;6.60;95.60;;;;;;5014855;28;20022;-94
2021/01/17 12:51:08;;;;;;;17.10;2.78;;;6.60;95.50;;;;;;5028942;28;20062;-94
2021/01/17 12:53:34;;;;;;;25.20;2.85;;;6.70;95.50;;;;;;5034445;28;20386;-93